Time,TemperatureF,DewpointF,PressureIn,WindDirection,WindDirectionDegrees,WindSpeedMPH,WindSpeedGustMPH,Humidity,HourlyPrecipIn,Conditions,Clouds,dailyrainin,SoftwareType,DateUTC
2013-11-19 00:00:00,60.3,54.3,29.82,North,-999,-999.0,-999.0,81,0.00,,,0.00,meteohub,2013-11-19 08:00:00,
2013-11-19 00:05:00,60.1,54.3,29.82,North,-999,-999.0,-999.0,81,0.00,,,0.00,meteohub,2013-11-19 08:05:00,
2013-11-19 00:10:00,60.1,54.3,29.82,North,-999,-999.0,-999.0,81,0.00,,,0.00,meteohub,2013-11-19 08:10:00,
2013-11-19 00:15:00,60.1,54.3,29.81,North,-999,-999.0,-999.0,81,0.00,,,0.00,meteohub,2013-11-19 08:15:00,
2013-11-19 00:20:00,59.9,54.1,29.81,North,-999,-999.0,-999.0,81,0.00,,,0.00,meteohub,2013-11-19 08:20:00,
2013-11-19 00:25:00,59.9,54.1,29.81,North,-999,-999.0,-999.0,81,0.00,,,0.00,meteohub,2013-11-19 08:25:00,
2013-11-19 00:30:00,59.9,54.1,29.81,North,-999,-999.0,-999.0,81,0.00,,,0.00,meteohub,2013-11-19 08:30:00,
2013-11-19 00:35:00,59.9,54.1,29.81,North,-999,-999.0,-999.0,81,0.00,,,0.00,meteohub,2013-11-19 08:35:00,
2013-11-19 00:40:00,59.7,54.0,29.81,North,-999,-999.0,-999.0,81,0.00,,,0.00,meteohub,2013-11-19 08:40:00,
2013-11-19 00:45:00,59.9,54.1,29.81,North,-999,-999.0,-999.0,81,0.00,,,0.00,meteohub,2013-11-19 08:45:00,
2013-11-19 00:50:00,59.7,54.0,29.81,North,-999,-999.0,-999.0,81,0.00,,,0.00,meteohub,2013-11-19 08:50:00,
2013-11-19 00:55:00,59.7,54.0,29.81,North,-999,-999.0,-999.0,81,0.00,,,0.00,meteohub,2013-11-19 08:55:00,
2013-11-19 01:00:00,59.7,54.0,29.81,North,-999,-999.0,-999.0,81,0.00,,,0.00,meteohub,2013-11-19 09:00:00,
2013-11-19 01:05:00,59.7,54.1,29.81,North,-999,-999.0,-999.0,82,0.00,,,0.00,meteohub,2013-11-19 09:05:00,
2013-11-19 01:10:00,59.7,54.1,29.81,North,-999,-999.0,-999.0,82,0.00,,,0.00,meteohub,2013-11-19 09:10:00,
2013-11-19 01:16:00,59.7,54.1,29.79,North,-999,-999.0,-999.0,82,0.00,,,0.00,meteohub,2013-11-19 09:16:00,
2013-11-19 01:21:00,59.9,54.3,29.79,North,-999,-999.0,-999.0,82,0.00,,,0.00,meteohub,2013-11-19 09:21:00,
2013-11-19 01:26:00,59.7,54.1,29.79,North,-999,-999.0,-999.0,82,0.00,,,0.00,meteohub,2013-11-19 09:26:00,
2013-11-19 01:31:00,59.7,54.1,29.79,WNW,293,5.0,-999.0,82,0.00,,,0.00,meteohub,2013-11-19 09:31:00,
2013-11-19 01:36:00,59.7,54.1,29.79,NW,315,3.0,5.0,82,0.00,,,0.00,meteohub,2013-11-19 09:36:00,
2013-11-19 01:41:00,59.5,54.0,29.79,West,270,0.0,5.0,82,0.00,,,0.00,meteohub,2013-11-19 09:41:00,
2013-11-19 01:46:00,59.7,54.1,29.79,WNW,293,3.0,5.0,82,0.00,,,0.00,meteohub,2013-11-19 09:46:00,
2013-11-19 01:51:00,59.9,54.3,29.79,West,270,6.0,6.0,82,0.00,,,0.00,meteohub,2013-11-19 09:51:00,
2013-11-19 01:56:00,59.9,54.3,29.80,West,270,3.0,6.0,82,0.00,,,0.00,meteohub,2013-11-19 09:56:00,
2013-11-19 02:01:00,59.9,54.3,29.80,WNW,293,2.0,6.0,82,0.00,,,0.00,meteohub,2013-11-19 10:01:00,
2013-11-19 02:06:00,59.9,54.3,29.80,NNW,338,2.0,6.0,82,0.00,,,0.00,meteohub,2013-11-19 10:06:00,
2013-11-19 02:11:00,59.7,54.1,29.80,South,180,4.0,4.0,82,0.00,,,0.00,meteohub,2013-11-19 10:11:00,
2013-11-19 02:17:00,59.9,54.3,29.78,West,270,0.0,4.0,82,0.00,,,0.00,meteohub,2013-11-19 10:17:00,
2013-11-19 02:22:00,59.9,54.3,29.78,WNW,293,2.0,4.0,82,0.00,,,0.00,meteohub,2013-11-19 10:22:00,
2013-11-19 02:27:00,59.7,54.1,29.78,NNW,338,2.0,4.0,82,0.00,,,0.00,meteohub,2013-11-19 10:27:00,
2013-11-19 02:32:00,59.5,54.0,29.78,WNW,293,0.0,3.0,82,0.00,,,0.00,meteohub,2013-11-19 10:32:00,
2013-11-19 02:37:00,59.5,54.0,29.77,WNW,293,0.0,2.0,82,0.00,,,0.00,meteohub,2013-11-19 10:37:00,
2013-11-19 02:42:00,59.4,53.8,29.77,WNW,293,3.0,3.0,82,0.00,,,0.00,meteohub,2013-11-19 10:42:00,
2013-11-19 02:47:00,59.4,53.8,29.77,WNW,293,3.0,3.0,82,0.00,,,0.00,meteohub,2013-11-19 10:47:00,
2013-11-19 02:52:00,59.5,54.0,29.77,WNW,293,3.0,3.0,82,0.00,,,0.00,meteohub,2013-11-19 10:52:00,
2013-11-19 02:57:00,59.5,54.0,29.77,WNW,293,3.0,3.0,82,0.00,,,0.00,meteohub,2013-11-19 10:57:00,
2013-11-19 03:02:00,59.4,53.8,29.77,WNW,293,3.0,3.0,82,0.00,,,0.00,meteohub,2013-11-19 11:02:00,
2013-11-19 03:07:00,59.4,53.8,29.77,North,-999,-999.0,3.0,82,0.00,,,0.00,meteohub,2013-11-19 11:07:00,
2013-11-19 03:12:00,59.4,53.8,29.77,North,-999,-999.0,-999.0,82,0.00,,,0.00,meteohub,2013-11-19 11:12:00,
2013-11-19 03:18:00,59.5,54.0,29.77,North,-999,-999.0,-999.0,82,0.00,,,0.00,meteohub,2013-11-19 11:18:00,
2013-11-19 03:23:00,59.5,54.3,29.77,North,-999,-999.0,-999.0,83,0.00,,,0.00,meteohub,2013-11-19 11:23:00,
2013-11-19 03:28:00,59.5,54.3,29.77,North,-999,-999.0,-999.0,83,0.00,,,0.00,meteohub,2013-11-19 11:28:00,
2013-11-19 03:33:00,59.5,54.3,29.77,North,-999,-999.0,-999.0,83,0.00,,,0.00,meteohub,2013-11-19 11:33:00,
2013-11-19 03:38:00,59.5,54.3,29.78,North,-999,-999.0,-999.0,83,0.00,,,0.00,meteohub,2013-11-19 11:38:00,
2013-11-19 03:43:00,59.5,54.3,29.78,North,-999,-999.0,-999.0,83,0.00,,,0.00,meteohub,2013-11-19 11:43:00,
2013-11-19 03:48:00,59.5,54.3,29.78,North,-999,-999.0,-999.0,83,0.00,,,0.00,meteohub,2013-11-19 11:48:00,
2013-11-19 03:53:00,59.5,54.3,29.78,North,-999,-999.0,-999.0,83,0.00,,,0.00,meteohub,2013-11-19 11:53:00,
2013-11-19 03:58:00,59.4,54.1,29.78,North,-999,-999.0,-999.0,83,0.00,,,0.00,meteohub,2013-11-19 11:58:00,
2013-11-19 04:03:00,59.4,54.1,29.78,North,-999,-999.0,-999.0,83,0.00,,,0.00,meteohub,2013-11-19 12:03:00,
2013-11-19 04:08:00,59.2,54.0,29.78,North,-999,-999.0,-999.0,83,0.00,,,0.00,meteohub,2013-11-19 12:08:00,
2013-11-19 04:13:00,59.2,54.0,29.78,North,-999,-999.0,-999.0,83,0.00,,,0.00,meteohub,2013-11-19 12:13:00,
2013-11-19 04:19:00,59.2,54.0,29.78,North,-999,-999.0,-999.0,83,0.00,,,0.00,meteohub,2013-11-19 12:19:00,
2013-11-19 04:24:00,59.2,54.0,29.78,North,-999,-999.0,-999.0,83,0.00,,,0.00,meteohub,2013-11-19 12:24:00,
2013-11-19 04:29:00,58.8,54.0,29.78,North,-999,-999.0,-999.0,84,0.00,,,0.00,meteohub,2013-11-19 12:29:00,
2013-11-19 04:34:00,58.8,54.0,29.78,North,-999,-999.0,-999.0,84,0.00,,,0.00,meteohub,2013-11-19 12:34:00,
2013-11-19 04:39:00,58.8,54.0,29.78,North,-999,-999.0,-999.0,84,0.00,,,0.00,meteohub,2013-11-19 12:39:00,
2013-11-19 04:44:00,58.6,53.8,29.78,North,-999,-999.0,-999.0,84,0.00,,,0.00,meteohub,2013-11-19 12:44:00,
2013-11-19 04:49:00,58.6,53.8,29.78,North,-999,-999.0,-999.0,84,0.00,,,0.00,meteohub,2013-11-19 12:49:00,
2013-11-19 04:54:00,58.6,53.8,29.78,North,-999,-999.0,-999.0,84,0.00,,,0.00,meteohub,2013-11-19 12:54:00,
2013-11-19 04:59:00,58.8,54.0,29.77,North,-999,-999.0,-999.0,84,0.00,,,0.00,meteohub,2013-11-19 12:59:00,
2013-11-19 05:04:00,58.6,53.8,29.77,North,-999,-999.0,-999.0,84,0.00,,,0.00,meteohub,2013-11-19 13:04:00,
2013-11-19 05:09:00,58.5,53.6,29.77,North,-999,-999.0,-999.0,84,0.00,,,0.00,meteohub,2013-11-19 13:09:00,
2013-11-19 05:14:00,58.3,53.4,29.77,North,-999,-999.0,-999.0,84,0.00,,,0.00,meteohub,2013-11-19 13:14:00,
2013-11-19 05:19:00,58.3,53.4,29.77,North,-999,-999.0,-999.0,84,0.00,,,0.00,meteohub,2013-11-19 13:19:00,
2013-11-19 05:25:00,58.5,53.6,29.77,North,-999,-999.0,-999.0,84,0.00,,,0.00,meteohub,2013-11-19 13:25:00,
2013-11-19 05:30:00,58.5,53.6,29.77,North,-999,-999.0,-999.0,84,0.00,,,0.00,meteohub,2013-11-19 13:30:00,
2013-11-19 05:35:00,58.5,54.0,29.76,North,-999,-999.0,-999.0,85,0.00,,,0.00,meteohub,2013-11-19 13:35:00,
2013-11-19 05:40:00,58.5,54.0,29.76,North,-999,-999.0,-999.0,85,0.00,,,0.00,meteohub,2013-11-19 13:40:00,
2013-11-19 05:45:00,58.3,53.8,29.76,North,-999,-999.0,-999.0,85,0.00,,,0.00,meteohub,2013-11-19 13:45:00,
2013-11-19 05:50:00,58.5,54.0,29.76,North,-999,-999.0,-999.0,85,0.00,,,0.00,meteohub,2013-11-19 13:50:00,
2013-11-19 05:55:00,58.5,54.0,29.76,North,-999,-999.0,-999.0,85,0.00,,,0.00,meteohub,2013-11-19 13:55:00,
2013-11-19 06:00:00,58.5,54.0,29.76,North,-999,-999.0,-999.0,85,0.00,,,0.00,meteohub,2013-11-19 14:00:00,
2013-11-19 06:05:00,58.5,54.0,29.76,North,-999,-999.0,-999.0,85,0.00,,,0.00,meteohub,2013-11-19 14:05:00,
2013-11-19 06:10:00,58.6,54.1,29.76,North,-999,-999.0,-999.0,85,0.00,,,0.00,meteohub,2013-11-19 14:10:00,
2013-11-19 06:15:00,58.6,54.1,29.77,North,-999,-999.0,-999.0,85,0.00,,,0.00,meteohub,2013-11-19 14:15:00,
2013-11-19 06:21:00,58.8,54.3,29.77,North,-999,-999.0,-999.0,85,0.00,,,0.00,meteohub,2013-11-19 14:21:00,
2013-11-19 06:26:00,58.8,54.3,29.77,North,-999,-999.0,-999.0,85,0.00,,,0.00,meteohub,2013-11-19 14:26:00,
2013-11-19 06:28:00,58.8,54.3,29.77,North,-999,-999.0,-999.0,85,0.00,,,0.00,meteohub,2013-11-19 14:28:00,
2013-11-19 06:33:00,59.2,55.0,29.77,North,-999,-999.0,-999.0,86,0.00,,,0.00,meteohub,2013-11-19 14:33:00,
2013-11-19 06:38:00,59.2,54.7,29.77,North,-999,-999.0,-999.0,85,0.00,,,0.00,meteohub,2013-11-19 14:38:00,
2013-11-19 06:44:00,59.2,54.7,29.77,North,-999,-999.0,-999.0,85,0.00,,,0.00,meteohub,2013-11-19 14:44:00,
2013-11-19 06:49:00,59.2,54.7,29.77,North,-999,-999.0,-999.0,85,0.00,,,0.00,meteohub,2013-11-19 14:49:00,
2013-11-19 06:54:00,59.4,54.9,29.77,North,-999,-999.0,-999.0,85,0.00,,,0.00,meteohub,2013-11-19 14:54:00,
2013-11-19 06:59:00,59.4,54.9,29.76,North,-999,-999.0,-999.0,85,0.00,,,0.00,meteohub,2013-11-19 14:59:00,
2013-11-19 07:04:00,59.2,54.7,29.76,North,-999,-999.0,-999.0,85,0.00,,,0.00,meteohub,2013-11-19 15:04:00,
2013-11-19 07:09:00,59.4,54.9,29.76,North,-999,-999.0,-999.0,85,0.00,,,0.00,meteohub,2013-11-19 15:09:00,
2013-11-19 07:14:00,59.4,54.9,29.78,North,-999,-999.0,-999.0,85,0.00,,,0.00,meteohub,2013-11-19 15:14:00,
2013-11-19 07:19:00,59.4,54.5,29.78,North,-999,-999.0,-999.0,84,0.00,,,0.00,meteohub,2013-11-19 15:19:00,
2013-11-19 07:24:00,59.7,54.9,29.78,North,-999,-999.0,-999.0,84,0.00,,,0.00,meteohub,2013-11-19 15:24:00,
2013-11-19 07:29:00,59.7,54.9,29.78,North,-999,-999.0,-999.0,84,0.00,,,0.00,meteohub,2013-11-19 15:29:00,
2013-11-19 07:34:00,60.1,55.2,29.79,North,-999,-999.0,-999.0,84,0.00,,,0.00,meteohub,2013-11-19 15:34:00,
2013-11-19 07:39:00,60.3,55.8,29.79,North,-999,-999.0,-999.0,85,0.00,,,0.00,meteohub,2013-11-19 15:39:00,
2013-11-19 07:44:00,60.1,55.2,29.79,North,-999,-999.0,-999.0,84,0.00,,,0.00,meteohub,2013-11-19 15:44:00,
2013-11-19 07:49:00,60.4,55.6,29.79,North,-999,-999.0,-999.0,84,0.00,,,0.00,meteohub,2013-11-19 15:49:00,
2013-11-19 07:54:00,60.6,55.8,29.78,North,-999,-999.0,-999.0,84,0.00,,,0.00,meteohub,2013-11-19 15:54:00,
2013-11-19 07:59:00,60.6,55.8,29.78,North,-999,-999.0,-999.0,84,0.00,,,0.00,meteohub,2013-11-19 15:59:00,
2013-11-19 08:04:00,60.8,55.9,29.78,North,-999,-999.0,-999.0,84,0.00,,,0.00,meteohub,2013-11-19 16:04:00,
2013-11-19 08:09:00,61.0,55.8,29.78,North,-999,-999.0,-999.0,83,0.00,,,0.00,meteohub,2013-11-19 16:09:00,
2013-11-19 08:15:00,61.3,56.1,29.78,North,-999,-999.0,-999.0,83,0.00,,,0.00,meteohub,2013-11-19 16:15:00,
2013-11-19 08:20:00,61.3,56.1,29.78,North,-999,-999.0,-999.0,83,0.00,,,0.00,meteohub,2013-11-19 16:20:00,
2013-11-19 08:25:00,61.3,56.1,29.78,North,-999,-999.0,-999.0,83,0.00,,,0.00,meteohub,2013-11-19 16:25:00,
2013-11-19 08:30:00,61.3,55.8,29.78,North,-999,-999.0,-999.0,82,0.00,,,0.00,meteohub,2013-11-19 16:30:00,
2013-11-19 08:35:00,61.5,56.3,29.78,North,-999,-999.0,-999.0,83,0.00,,,0.00,meteohub,2013-11-19 16:35:00,
2013-11-19 08:40:00,62.4,57.2,29.78,North,-999,-999.0,-999.0,83,0.00,,,0.00,meteohub,2013-11-19 16:40:00,
2013-11-19 08:45:00,62.8,57.2,29.78,North,-999,-999.0,-999.0,82,0.00,,,0.00,meteohub,2013-11-19 16:45:00,
2013-11-19 08:50:00,63.0,57.4,29.78,North,-999,-999.0,-999.0,82,0.00,,,0.00,meteohub,2013-11-19 16:50:00,
2013-11-19 08:55:00,63.1,57.2,29.78,North,-999,-999.0,-999.0,81,0.00,,,0.00,meteohub,2013-11-19 16:55:00,
2013-11-19 09:00:00,63.5,57.6,29.78,North,-999,-999.0,-999.0,81,0.00,,,0.00,meteohub,2013-11-19 17:00:00,
2013-11-19 09:05:00,63.9,57.6,29.78,North,-999,-999.0,-999.0,80,0.00,,,0.00,meteohub,2013-11-19 17:05:00,
2013-11-19 09:10:00,64.0,57.7,29.78,North,-999,-999.0,-999.0,80,0.00,,,0.00,meteohub,2013-11-19 17:10:00,
2013-11-19 09:15:00,64.2,57.6,29.79,North,-999,-999.0,-999.0,79,0.00,,,0.00,meteohub,2013-11-19 17:15:00,
2013-11-19 09:21:00,64.0,57.4,29.79,North,-999,-999.0,-999.0,79,0.00,,,0.00,meteohub,2013-11-19 17:21:00,
2013-11-19 09:26:00,63.7,57.0,29.79,North,-999,-999.0,-999.0,79,0.00,,,0.00,meteohub,2013-11-19 17:26:00,
2013-11-19 09:31:00,63.9,57.2,29.79,North,-999,-999.0,-999.0,79,0.00,,,0.00,meteohub,2013-11-19 17:31:00,
2013-11-19 09:35:00,64.2,57.6,29.79,North,-999,-999.0,-999.0,79,0.00,,,0.00,meteohub,2013-11-19 17:35:00,
2013-11-19 09:40:00,64.8,57.7,29.79,North,-999,-999.0,-999.0,78,0.00,,,0.00,meteohub,2013-11-19 17:40:00,
2013-11-19 09:45:00,65.1,57.7,29.79,North,-999,-999.0,-999.0,77,0.00,,,0.00,meteohub,2013-11-19 17:45:00,
2013-11-19 09:50:00,65.3,57.9,29.79,North,-999,-999.0,-999.0,77,0.00,,,0.00,meteohub,2013-11-19 17:50:00,
2013-11-19 09:55:00,65.3,57.9,29.79,North,-999,-999.0,-999.0,77,0.00,,,0.00,meteohub,2013-11-19 17:55:00,
2013-11-19 10:00:00,65.1,57.4,29.79,North,-999,-999.0,-999.0,76,0.00,,,0.00,meteohub,2013-11-19 18:00:00,
2013-11-19 10:05:00,65.3,57.6,29.79,North,-999,-999.0,-999.0,76,0.00,,,0.00,meteohub,2013-11-19 18:05:00,
2013-11-19 10:11:00,65.7,57.9,29.79,North,-999,-999.0,-999.0,76,0.00,,,0.00,meteohub,2013-11-19 18:11:00,
2013-11-19 10:16:00,66.2,58.5,29.78,North,-999,-999.0,-999.0,76,0.00,,,0.00,meteohub,2013-11-19 18:16:00,
2013-11-19 10:21:00,66.7,58.6,29.78,North,-999,-999.0,-999.0,75,0.00,,,0.00,meteohub,2013-11-19 18:21:00,
2013-11-19 10:26:00,66.9,57.9,29.78,North,-999,-999.0,-999.0,73,0.00,,,0.00,meteohub,2013-11-19 18:26:00,
2013-11-19 10:31:00,67.3,58.3,29.78,North,-999,-999.0,-999.0,73,0.00,,,0.00,meteohub,2013-11-19 18:31:00,
2013-11-19 10:36:00,67.3,57.9,29.78,North,-999,-999.0,-999.0,72,0.00,,,0.00,meteohub,2013-11-19 18:36:00,
2013-11-19 10:41:00,67.8,58.8,29.78,North,-999,-999.0,-999.0,73,0.00,,,0.00,meteohub,2013-11-19 18:41:00,
2013-11-19 10:46:00,68.2,58.5,29.78,North,-999,-999.0,-999.0,71,0.00,,,0.00,meteohub,2013-11-19 18:46:00,
2013-11-19 10:51:00,68.0,58.3,29.78,North,-999,-999.0,-999.0,71,0.00,,,0.00,meteohub,2013-11-19 18:51:00,
2013-11-19 10:56:00,67.5,57.7,29.79,North,-999,-999.0,-999.0,71,0.00,,,0.00,meteohub,2013-11-19 18:56:00,
2013-11-19 11:01:00,66.7,57.0,29.79,North,-999,-999.0,-999.0,71,0.00,,,0.00,meteohub,2013-11-19 19:01:00,
2013-11-19 11:06:00,66.4,57.0,29.79,North,-999,-999.0,-999.0,72,0.00,,,0.00,meteohub,2013-11-19 19:06:00,
2013-11-19 11:12:00,66.0,56.7,29.79,North,-999,-999.0,-999.0,72,0.00,,,0.00,meteohub,2013-11-19 19:12:00,
2013-11-19 11:17:00,65.8,57.0,29.79,North,-999,-999.0,-999.0,73,0.00,,,0.00,meteohub,2013-11-19 19:17:00,
2013-11-19 11:22:00,65.8,57.0,29.79,North,-999,-999.0,-999.0,73,0.00,,,0.00,meteohub,2013-11-19 19:22:00,
2013-11-19 11:27:00,65.8,57.4,29.79,North,-999,-999.0,-999.0,74,0.00,,,0.00,meteohub,2013-11-19 19:27:00,
2013-11-19 11:32:00,65.8,57.4,29.79,North,-999,-999.0,-999.0,74,0.00,,,0.00,meteohub,2013-11-19 19:32:00,
2013-11-19 11:37:00,65.5,57.0,29.78,North,-999,-999.0,-999.0,74,0.00,,,0.00,meteohub,2013-11-19 19:37:00,
2013-11-19 11:42:00,65.7,57.2,29.78,North,-999,-999.0,-999.0,74,0.00,,,0.00,meteohub,2013-11-19 19:42:00,
2013-11-19 11:47:00,65.3,56.8,29.78,North,-999,-999.0,-999.0,74,0.00,,,0.00,meteohub,2013-11-19 19:47:00,
2013-11-19 11:52:00,65.7,57.2,29.78,North,-999,-999.0,-999.0,74,0.00,,,0.00,meteohub,2013-11-19 19:52:00,
2013-11-19 11:57:00,65.7,57.2,29.77,North,-999,-999.0,-999.0,74,0.00,,,0.00,meteohub,2013-11-19 19:57:00,
2013-11-19 12:02:00,65.8,57.4,29.77,North,-999,-999.0,-999.0,74,0.00,,,0.00,meteohub,2013-11-19 20:02:00,
2013-11-19 12:08:00,66.0,57.6,29.77,North,-999,-999.0,-999.0,74,0.00,,,0.00,meteohub,2013-11-19 20:08:00,
2013-11-19 12:13:00,66.0,57.6,29.77,North,-999,-999.0,-999.0,74,0.00,,,0.00,meteohub,2013-11-19 20:13:00,
2013-11-19 12:18:00,67.3,57.9,29.78,North,-999,-999.0,-999.0,72,0.00,,,0.00,meteohub,2013-11-19 20:18:00,
2013-11-19 12:23:00,67.3,57.9,29.78,North,-999,-999.0,-999.0,72,0.00,,,0.00,meteohub,2013-11-19 20:23:00,
2013-11-19 12:28:00,68.2,58.1,29.78,North,-999,-999.0,-999.0,70,0.00,,,0.00,meteohub,2013-11-19 20:28:00,
2013-11-19 12:33:00,68.5,58.3,29.78,North,-999,-999.0,-999.0,70,0.00,,,0.00,meteohub,2013-11-19 20:33:00,
2013-11-19 12:38:00,68.5,57.6,29.77,North,-999,-999.0,-999.0,68,0.00,,,0.00,meteohub,2013-11-19 20:38:00,
2013-11-19 12:43:00,68.7,57.7,29.77,North,-999,-999.0,-999.0,68,0.00,,,0.00,meteohub,2013-11-19 20:43:00,
2013-11-19 12:48:00,68.9,57.9,29.77,North,-999,-999.0,-999.0,68,0.00,,,0.00,meteohub,2013-11-19 20:48:00,
2013-11-19 12:53:00,68.9,57.9,29.77,North,-999,-999.0,-999.0,68,0.00,,,0.00,meteohub,2013-11-19 20:53:00,
2013-11-19 12:58:00,69.3,58.6,29.77,North,-999,-999.0,-999.0,69,0.00,,,0.00,meteohub,2013-11-19 20:58:00,
2013-11-19 13:03:00,69.3,58.3,29.77,North,-999,-999.0,-999.0,68,0.00,,,0.00,meteohub,2013-11-19 21:03:00,
2013-11-19 13:09:00,68.9,57.9,29.77,North,-999,-999.0,-999.0,68,0.00,,,0.00,meteohub,2013-11-19 21:09:00,
2013-11-19 13:14:00,69.1,58.1,29.77,North,-999,-999.0,-999.0,68,0.00,,,0.00,meteohub,2013-11-19 21:14:00,
2013-11-19 13:19:00,69.1,58.1,29.75,North,-999,-999.0,-999.0,68,0.00,,,0.00,meteohub,2013-11-19 21:19:00,
2013-11-19 13:24:00,69.3,57.9,29.75,North,-999,-999.0,-999.0,67,0.00,,,0.00,meteohub,2013-11-19 21:24:00,
2013-11-19 13:29:00,69.3,57.9,29.75,North,-999,-999.0,-999.0,67,0.00,,,0.00,meteohub,2013-11-19 21:29:00,
2013-11-19 13:34:00,69.3,57.9,29.75,North,-999,-999.0,-999.0,67,0.00,,,0.00,meteohub,2013-11-19 21:34:00,
2013-11-19 13:39:00,69.6,58.1,29.76,North,-999,-999.0,-999.0,67,0.00,,,0.00,meteohub,2013-11-19 21:39:00,
2013-11-19 13:44:00,69.6,57.7,29.76,North,-999,-999.0,-999.0,66,0.00,,,0.00,meteohub,2013-11-19 21:44:00,
2013-11-19 13:49:00,69.4,57.6,29.76,North,-999,-999.0,-999.0,66,0.00,,,0.00,meteohub,2013-11-19 21:49:00,
2013-11-19 13:54:00,69.3,57.4,29.76,North,-999,-999.0,-999.0,66,0.00,,,0.00,meteohub,2013-11-19 21:54:00,
2013-11-19 13:59:00,69.3,57.4,29.76,North,-999,-999.0,-999.0,66,0.00,,,0.00,meteohub,2013-11-19 21:59:00,
2013-11-19 14:04:00,69.1,57.2,29.76,North,-999,-999.0,-999.0,66,0.00,,,0.00,meteohub,2013-11-19 22:04:00,
2013-11-19 14:09:00,68.7,56.8,29.76,North,-999,-999.0,-999.0,66,0.00,,,0.00,meteohub,2013-11-19 22:09:00,
2013-11-19 14:14:00,68.7,56.8,29.76,North,-999,-999.0,-999.0,66,0.00,,,0.00,meteohub,2013-11-19 22:14:00,
2013-11-19 14:19:00,69.1,57.2,29.76,North,-999,-999.0,-999.0,66,0.00,,,0.00,meteohub,2013-11-19 22:19:00,
2013-11-19 14:25:00,68.5,56.7,29.76,North,-999,-999.0,-999.0,66,0.00,,,0.00,meteohub,2013-11-19 22:25:00,
2013-11-19 14:30:00,68.4,56.5,29.76,North,-999,-999.0,-999.0,66,0.00,,,0.00,meteohub,2013-11-19 22:30:00,
2013-11-19 14:35:00,68.5,56.7,29.76,North,-999,-999.0,-999.0,66,0.00,,,0.00,meteohub,2013-11-19 22:35:00,
2013-11-19 14:40:00,68.5,56.7,29.76,North,-999,-999.0,-999.0,66,0.00,,,0.00,meteohub,2013-11-19 22:40:00,
2013-11-19 14:45:00,68.2,56.3,29.76,North,-999,-999.0,-999.0,66,0.00,,,0.00,meteohub,2013-11-19 22:45:00,
2013-11-19 14:50:00,68.0,56.3,29.76,North,-999,-999.0,-999.0,66,0.00,,,0.00,meteohub,2013-11-19 22:50:00,
2013-11-19 14:55:00,67.5,56.1,29.75,North,-999,-999.0,-999.0,67,0.00,,,0.00,meteohub,2013-11-19 22:55:00,
2013-11-19 15:00:00,66.7,55.4,29.75,North,-999,-999.0,-999.0,67,0.00,,,0.00,meteohub,2013-11-19 23:00:00,
2013-11-19 15:05:00,66.4,55.6,29.75,North,-999,-999.0,-999.0,68,0.00,,,0.00,meteohub,2013-11-19 23:05:00,
2013-11-19 15:11:00,65.8,55.0,29.75,North,-999,-999.0,-999.0,68,0.00,,,0.00,meteohub,2013-11-19 23:11:00,
2013-11-19 15:16:00,65.7,55.2,29.77,North,-999,-999.0,-999.0,69,0.00,,,0.00,meteohub,2013-11-19 23:16:00,
2013-11-19 15:21:00,65.1,55.0,29.77,North,-999,-999.0,-999.0,70,0.00,,,0.00,meteohub,2013-11-19 23:21:00,
2013-11-19 15:26:00,65.1,55.0,29.77,North,-999,-999.0,-999.0,70,0.00,,,0.00,meteohub,2013-11-19 23:26:00,
2013-11-19 15:31:00,64.9,54.9,29.77,North,-999,-999.0,-999.0,70,0.00,,,0.00,meteohub,2013-11-19 23:31:00,
2013-11-19 15:36:00,64.6,54.5,29.77,North,-999,-999.0,-999.0,70,0.00,,,0.00,meteohub,2013-11-19 23:36:00,
2013-11-19 15:41:00,64.4,54.9,29.77,North,-999,-999.0,-999.0,71,0.00,,,0.00,meteohub,2013-11-19 23:41:00,
2013-11-19 15:47:00,64.2,54.7,29.77,North,-999,-999.0,-999.0,71,0.00,,,0.00,meteohub,2013-11-19 23:47:00,
2013-11-19 15:52:00,63.9,54.3,29.77,North,-999,-999.0,-999.0,71,0.00,,,0.00,meteohub,2013-11-19 23:52:00,
2013-11-19 15:57:00,63.7,54.1,29.78,North,-999,-999.0,-999.0,71,0.00,,,0.00,meteohub,2013-11-19 23:57:00,
2013-11-19 16:02:00,63.7,54.5,29.78,North,-999,-999.0,-999.0,72,0.00,,,0.00,meteohub,2013-11-20 00:02:00,
2013-11-19 16:07:00,63.7,54.5,29.78,North,-999,-999.0,-999.0,72,0.00,,,0.00,meteohub,2013-11-20 00:07:00,
2013-11-19 16:12:00,63.5,54.3,29.78,North,-999,-999.0,-999.0,72,0.00,,,0.00,meteohub,2013-11-20 00:12:00,
2013-11-19 16:17:00,63.1,54.0,29.78,North,-999,-999.0,-999.0,72,0.00,,,0.00,meteohub,2013-11-20 00:17:00,
2013-11-19 16:22:00,63.1,54.3,29.78,North,-999,-999.0,-999.0,73,0.00,,,0.00,meteohub,2013-11-20 00:22:00,
2013-11-19 16:27:00,63.0,54.1,29.78,North,-999,-999.0,-999.0,73,0.00,,,0.00,meteohub,2013-11-20 00:27:00,
2013-11-19 16:32:00,62.8,54.0,29.78,North,-999,-999.0,-999.0,73,0.00,,,0.00,meteohub,2013-11-20 00:32:00,
2013-11-19 16:37:00,62.6,53.8,29.77,North,-999,-999.0,-999.0,73,0.00,,,0.00,meteohub,2013-11-20 00:37:00,
2013-11-19 16:42:00,62.2,53.8,29.77,North,-999,-999.0,-999.0,74,0.00,,,0.00,meteohub,2013-11-20 00:42:00,
2013-11-19 16:47:00,62.2,53.8,29.77,North,-999,-999.0,-999.0,74,0.00,,,0.00,meteohub,2013-11-20 00:47:00,
2013-11-19 16:52:00,62.1,53.6,29.77,North,-999,-999.0,-999.0,74,0.00,,,0.00,meteohub,2013-11-20 00:52:00,
2013-11-19 16:57:00,61.9,53.4,29.76,North,-999,-999.0,-999.0,74,0.00,,,0.00,meteohub,2013-11-20 00:57:00,
2013-11-19 17:02:00,61.9,53.8,29.76,North,-999,-999.0,-999.0,75,0.00,,,0.00,meteohub,2013-11-20 01:02:00,
2013-11-19 17:07:00,61.7,53.8,29.76,North,-999,-999.0,-999.0,75,0.00,,,0.00,meteohub,2013-11-20 01:07:00,
2013-11-19 17:12:00,61.5,53.6,29.76,North,-999,-999.0,-999.0,75,0.00,,,0.00,meteohub,2013-11-20 01:12:00,
2013-11-19 17:17:00,61.3,53.4,29.77,North,-999,-999.0,-999.0,75,0.00,,,0.00,meteohub,2013-11-20 01:17:00,
2013-11-19 17:22:00,61.2,53.6,29.77,North,-999,-999.0,-999.0,76,0.00,,,0.00,meteohub,2013-11-20 01:22:00,
2013-11-19 17:27:00,61.3,53.8,29.77,North,-999,-999.0,-999.0,76,0.00,,,0.00,meteohub,2013-11-20 01:27:00,
2013-11-19 17:32:00,61.2,53.6,29.77,North,-999,-999.0,-999.0,76,0.00,,,0.00,meteohub,2013-11-20 01:32:00,
2013-11-19 17:37:00,61.0,53.8,29.77,North,-999,-999.0,-999.0,77,0.00,,,0.00,meteohub,2013-11-20 01:37:00,
2013-11-19 17:42:00,60.8,53.6,29.77,North,-999,-999.0,-999.0,77,0.00,,,0.00,meteohub,2013-11-20 01:42:00,
2013-11-19 17:47:00,60.8,53.6,29.77,North,-999,-999.0,-999.0,77,0.00,,,0.00,meteohub,2013-11-20 01:47:00,
2013-11-19 17:52:00,60.8,53.6,29.77,North,-999,-999.0,-999.0,77,0.00,,,0.00,meteohub,2013-11-20 01:52:00,
2013-11-19 17:57:00,60.8,53.6,29.77,North,-999,-999.0,-999.0,77,0.00,,,0.00,meteohub,2013-11-20 01:57:00,
2013-11-19 18:02:00,61.0,53.8,29.77,North,-999,-999.0,-999.0,77,0.00,,,0.00,meteohub,2013-11-20 02:02:00,
2013-11-19 18:07:00,60.8,53.6,29.77,North,-999,-999.0,-999.0,77,0.00,,,0.00,meteohub,2013-11-20 02:07:00,
2013-11-19 18:12:00,60.6,53.4,29.77,North,-999,-999.0,-999.0,77,0.00,,,0.00,meteohub,2013-11-20 02:12:00,
2013-11-19 18:17:00,60.6,53.4,29.77,North,-999,-999.0,-999.0,77,0.00,,,0.00,meteohub,2013-11-20 02:17:00,
2013-11-19 18:22:00,60.4,53.2,29.77,North,-999,-999.0,-999.0,77,0.00,,,0.00,meteohub,2013-11-20 02:22:00,
2013-11-19 18:27:00,60.4,53.2,29.77,North,-999,-999.0,-999.0,77,0.00,,,0.00,meteohub,2013-11-20 02:27:00,
2013-11-19 18:32:00,60.4,53.6,29.77,North,-999,-999.0,-999.0,78,0.00,,,0.00,meteohub,2013-11-20 02:32:00,
2013-11-19 18:37:00,60.3,53.4,29.76,North,-999,-999.0,-999.0,78,0.00,,,0.00,meteohub,2013-11-20 02:37:00,
2013-11-19 18:42:00,60.4,53.6,29.76,North,-999,-999.0,-999.0,78,0.00,,,0.00,meteohub,2013-11-20 02:42:00,
2013-11-19 18:47:00,60.3,53.4,29.76,North,-999,-999.0,-999.0,78,0.00,,,0.00,meteohub,2013-11-20 02:47:00,
2013-11-19 18:52:00,60.4,53.6,29.76,North,-999,-999.0,-999.0,78,0.00,,,0.00,meteohub,2013-11-20 02:52:00,
2013-11-19 18:57:00,60.3,53.4,29.75,North,-999,-999.0,-999.0,78,0.00,,,0.00,meteohub,2013-11-20 02:57:00,
2013-11-19 19:02:00,60.4,53.6,29.75,North,-999,-999.0,-999.0,78,0.00,,,0.00,meteohub,2013-11-20 03:02:00,
2013-11-19 19:07:00,60.4,53.6,29.75,North,-999,-999.0,-999.0,78,0.00,,,0.00,meteohub,2013-11-20 03:07:00,
2013-11-19 19:12:00,60.6,54.1,29.75,North,-999,-999.0,-999.0,79,0.00,,,0.00,meteohub,2013-11-20 03:12:00,
2013-11-19 19:17:00,60.6,54.1,29.74,North,-999,-999.0,-999.0,79,0.00,,,0.00,meteohub,2013-11-20 03:17:00,
2013-11-19 19:22:00,60.6,54.1,29.74,North,-999,-999.0,-999.0,79,0.00,,,0.00,meteohub,2013-11-20 03:22:00,
2013-11-19 19:27:00,60.6,54.1,29.74,North,-999,-999.0,-999.0,79,0.00,,,0.00,meteohub,2013-11-20 03:27:00,
2013-11-19 19:32:00,60.6,54.1,29.74,North,-999,-999.0,-999.0,79,0.00,,,0.00,meteohub,2013-11-20 03:32:00,
2013-11-19 19:37:00,60.6,54.1,29.75,North,-999,-999.0,-999.0,79,0.00,,,0.00,meteohub,2013-11-20 03:37:00,
2013-11-19 19:42:00,60.3,53.8,29.75,North,-999,-999.0,-999.0,79,0.00,,,0.00,meteohub,2013-11-20 03:42:00,
2013-11-19 19:47:00,60.3,53.8,29.75,North,-999,-999.0,-999.0,79,0.00,,,0.00,meteohub,2013-11-20 03:47:00,
2013-11-19 19:52:00,60.4,54.3,29.75,North,-999,-999.0,-999.0,80,0.00,,,0.00,meteohub,2013-11-20 03:52:00,
2013-11-19 19:57:00,60.4,54.3,29.75,North,-999,-999.0,-999.0,80,0.00,,,0.00,meteohub,2013-11-20 03:57:00,
2013-11-19 20:02:00,60.3,54.1,29.75,North,-999,-999.0,-999.0,80,0.00,,,0.00,meteohub,2013-11-20 04:02:00,
2013-11-19 20:08:00,60.3,54.1,29.75,North,-999,-999.0,-999.0,80,0.00,,,0.00,meteohub,2013-11-20 04:08:00,
2013-11-19 20:13:00,60.3,54.1,29.75,North,-999,-999.0,-999.0,80,0.00,,,0.00,meteohub,2013-11-20 04:13:00,
2013-11-19 20:18:00,60.3,54.3,29.75,North,-999,-999.0,-999.0,81,0.00,,,0.00,meteohub,2013-11-20 04:18:00,
2013-11-19 20:23:00,60.1,54.3,29.75,North,-999,-999.0,-999.0,81,0.00,,,0.00,meteohub,2013-11-20 04:23:00,
2013-11-19 20:28:00,60.1,54.3,29.75,North,-999,-999.0,-999.0,81,0.00,,,0.00,meteohub,2013-11-20 04:28:00,
2013-11-19 20:33:00,60.1,54.3,29.75,North,-999,-999.0,-999.0,81,0.00,,,0.00,meteohub,2013-11-20 04:33:00,
2013-11-19 20:38:00,60.1,54.3,29.74,North,-999,-999.0,-999.0,81,0.00,,,0.00,meteohub,2013-11-20 04:38:00,
2013-11-19 20:43:00,60.1,54.3,29.74,North,-999,-999.0,-999.0,81,0.00,,,0.00,meteohub,2013-11-20 04:43:00,
2013-11-19 20:48:00,60.1,54.3,29.74,North,-999,-999.0,-999.0,81,0.00,,,0.00,meteohub,2013-11-20 04:48:00,
2013-11-19 20:53:00,60.3,54.3,29.74,North,-999,-999.0,-999.0,81,0.00,,,0.00,meteohub,2013-11-20 04:53:00,
2013-11-19 20:58:00,60.3,54.3,29.74,North,-999,-999.0,-999.0,81,0.00,,,0.00,meteohub,2013-11-20 04:58:00,
2013-11-19 21:01:00,60.3,54.3,29.74,North,-999,-999.0,-999.0,81,0.00,,,0.00,meteohub,2013-11-20 05:01:00,
2013-11-19 21:02:00,60.3,54.3,29.74,North,-999,-999.0,-999.0,81,0.00,,,0.00,meteohub,2013-11-20 05:02:00,
2013-11-19 21:05:00,60.3,54.3,29.74,North,-999,-999.0,-999.0,81,0.00,,,0.00,meteohub,2013-11-20 05:05:00,
2013-11-19 21:10:00,60.3,54.3,29.74,North,-999,-999.0,-999.0,81,0.00,,,0.00,meteohub,2013-11-20 05:10:00,
2013-11-19 21:15:00,60.3,54.3,29.73,North,-999,-999.0,-999.0,81,0.00,,,0.00,meteohub,2013-11-20 05:15:00,
2013-11-19 21:21:00,60.3,54.3,29.73,North,-999,-999.0,-999.0,81,0.00,,,0.00,meteohub,2013-11-20 05:21:00,
2013-11-19 21:26:00,60.3,54.3,29.73,North,-999,-999.0,-999.0,81,0.00,,,0.00,meteohub,2013-11-20 05:26:00,
2013-11-19 21:31:00,60.3,54.3,29.73,North,-999,-999.0,-999.0,81,0.00,,,0.00,meteohub,2013-11-20 05:31:00,
2013-11-19 21:36:00,60.1,54.3,29.75,North,-999,-999.0,-999.0,81,0.00,,,0.00,meteohub,2013-11-20 05:36:00,
2013-11-19 21:41:00,60.1,54.5,29.75,North,-999,-999.0,-999.0,82,0.00,,,0.00,meteohub,2013-11-20 05:41:00,
2013-11-19 21:46:00,60.3,54.7,29.75,North,-999,-999.0,-999.0,82,0.00,,,0.00,meteohub,2013-11-20 05:46:00,
2013-11-19 21:51:00,60.1,54.5,29.75,North,-999,-999.0,-999.0,82,0.00,,,0.00,meteohub,2013-11-20 05:51:00,
2013-11-19 21:56:00,60.3,54.7,29.74,North,-999,-999.0,-999.0,82,0.00,,,0.00,meteohub,2013-11-20 05:56:00,
2013-11-19 22:01:00,60.3,54.7,29.74,North,-999,-999.0,-999.0,82,0.00,,,0.00,meteohub,2013-11-20 06:01:00,
2013-11-19 22:07:00,60.3,54.7,29.74,North,-999,-999.0,-999.0,82,0.00,,,0.00,meteohub,2013-11-20 06:07:00,
2013-11-19 22:12:00,60.4,54.9,29.74,North,-999,-999.0,-999.0,82,0.00,,,0.00,meteohub,2013-11-20 06:12:00,
2013-11-19 22:17:00,60.6,55.0,29.73,North,-999,-999.0,-999.0,82,0.00,,,0.00,meteohub,2013-11-20 06:17:00,
2013-11-19 22:22:00,60.4,54.9,29.73,North,-999,-999.0,-999.0,82,0.00,,,0.00,meteohub,2013-11-20 06:22:00,
2013-11-19 22:27:00,60.6,55.0,29.73,North,-999,-999.0,-999.0,82,0.00,,,0.00,meteohub,2013-11-20 06:27:00,
2013-11-19 22:32:00,60.6,55.0,29.73,North,-999,-999.0,-999.0,82,0.00,,,0.00,meteohub,2013-11-20 06:32:00,
2013-11-19 22:37:00,60.6,55.4,29.73,North,-999,-999.0,-999.0,83,0.00,,,0.00,meteohub,2013-11-20 06:37:00,
2013-11-19 22:42:00,60.4,54.9,29.73,North,-999,-999.0,-999.0,82,0.00,,,0.00,meteohub,2013-11-20 06:42:00,
2013-11-19 22:47:00,60.6,55.0,29.73,North,-999,-999.0,-999.0,82,0.00,,,0.00,meteohub,2013-11-20 06:47:00,
2013-11-19 22:52:00,60.6,55.0,29.73,North,-999,-999.0,-999.0,82,0.00,,,0.00,meteohub,2013-11-20 06:52:00,
2013-11-19 22:57:00,60.6,55.0,29.72,North,-999,-999.0,-999.0,82,0.00,,,0.00,meteohub,2013-11-20 06:57:00,
2013-11-19 23:02:00,60.6,55.4,29.72,North,-999,-999.0,-999.0,83,0.00,,,0.00,meteohub,2013-11-20 07:02:00,
2013-11-19 23:07:00,60.4,55.2,29.72,North,-999,-999.0,-999.0,83,0.00,,,0.00,meteohub,2013-11-20 07:07:00,
2013-11-19 23:12:00,60.4,55.2,29.72,North,-999,-999.0,-999.0,83,0.00,,,0.00,meteohub,2013-11-20 07:12:00,
2013-11-19 23:17:00,60.6,55.4,29.71,North,-999,-999.0,-999.0,83,0.00,,,0.00,meteohub,2013-11-20 07:17:00,
2013-11-19 23:22:00,60.6,55.4,29.71,North,-999,-999.0,-999.0,83,0.00,,,0.00,meteohub,2013-11-20 07:22:00,
2013-11-19 23:27:00,60.6,55.4,29.71,North,-999,-999.0,-999.0,83,0.00,,,0.00,meteohub,2013-11-20 07:27:00,
2013-11-19 23:32:00,60.3,55.0,29.71,North,-999,-999.0,-999.0,83,0.00,,,0.00,meteohub,2013-11-20 07:32:00,
2013-11-19 23:37:00,60.3,55.0,29.72,North,-999,-999.0,-999.0,83,0.00,,,0.00,meteohub,2013-11-20 07:37:00,
2013-11-19 23:42:00,60.1,54.9,29.72,North,-999,-999.0,-999.0,83,0.00,,,0.00,meteohub,2013-11-20 07:42:00,
2013-11-19 23:47:00,60.3,55.0,29.72,North,-999,-999.0,-999.0,83,0.00,,,0.00,meteohub,2013-11-20 07:47:00,
2013-11-19 23:52:00,59.9,54.3,29.72,North,-999,-999.0,-999.0,82,0.00,,,0.00,meteohub,2013-11-20 07:52:00,
2013-11-19 23:57:00,59.9,54.3,29.72,North,-999,-999.0,-999.0,82,0.00,,,0.00,meteohub,2013-11-20 07:57:00,